sensor_id;sensor_type;location;lat;lon;timestamp;temperature;humidity
22779;DHT22;11556;51.194;3.800;2023-07-30T00:00:48;16.00;99.90
22779;DHT22;11556;51.194;3.800;2023-07-30T00:03:15;16.00;99.90
22779;DHT22;11556;51.194;3.800;2023-07-30T00:05:40;16.00;99.90
22779;DHT22;11556;51.194;3.800;2023-07-30T00:08:06;15.90;99.90
22779;DHT22;11556;51.194;3.800;2023-07-30T00:10:32;15.90;99.90
22779;DHT22;11556;51.194;3.800;2023-07-30T00:12:57;15.90;99.90
22779;DHT22;11556;51.194;3.800;2023-07-30T00:15:23;15.90;99.90
22779;DHT22;11556;51.194;3.800;2023-07-30T00:17:48;15.90;99.90
22779;DHT22;11556;51.194;3.800;2023-07-30T00:20:14;15.90;99.90
22779;DHT22;11556;51.194;3.800;2023-07-30T00:22:40;15.90;99.90
22779;DHT22;11556;51.194;3.800;2023-07-30T00:25:05;15.90;99.90
22779;DHT22;11556;51.194;3.800;2023-07-30T00:27:31;15.90;99.90
22779;DHT22;11556;51.194;3.800;2023-07-30T00:29:57;15.80;99.90
22779;DHT22;11556;51.194;3.800;2023-07-30T00:32:22;15.80;99.90
22779;DHT22;11556;51.194;3.800;2023-07-30T00:34:48;15.80;99.90
22779;DHT22;11556;51.194;3.800;2023-07-30T00:37:13;15.70;99.90
22779;DHT22;11556;51.194;3.800;2023-07-30T00:39:39;15.80;99.90
22779;DHT22;11556;51.194;3.800;2023-07-30T00:42:05;15.80;99.90
22779;DHT22;11556;51.194;3.800;2023-07-30T00:44:31;15.80;99.90
22779;DHT22;11556;51.194;3.800;2023-07-30T00:46:56;15.70;99.90
22779;DHT22;11556;51.194;3.800;2023-07-30T00:49:22;15.80;99.90
22779;DHT22;11556;51.194;3.800;2023-07-30T00:51:48;15.80;99.90
22779;DHT22;11556;51.194;3.800;2023-07-30T00:54:13;15.80;99.90
22779;DHT22;11556;51.194;3.800;2023-07-30T00:56:46;15.80;99.90
22779;DHT22;11556;51.194;3.800;2023-07-30T00:59:14;15.70;99.90
22779;DHT22;11556;51.194;3.800;2023-07-30T01:01:42;15.60;99.90
22779;DHT22;11556;51.194;3.800;2023-07-30T01:04:09;15.70;99.90
22779;DHT22;11556;51.194;3.800;2023-07-30T01:06:34;15.70;99.90
22779;DHT22;11556;51.194;3.800;2023-07-30T01:09:00;15.60;99.90
22779;DHT22;11556;51.194;3.800;2023-07-30T01:11:26;15.50;99.90
22779;DHT22;11556;51.194;3.800;2023-07-30T01:13:52;15.50;99.90
22779;DHT22;11556;51.194;3.800;2023-07-30T01:16:19;15.50;99.90
22779;DHT22;11556;51.194;3.800;2023-07-30T01:18:45;15.50;99.90
22779;DHT22;11556;51.194;3.800;2023-07-30T01:21:12;15.40;99.90
22779;DHT22;11556;51.194;3.800;2023-07-30T01:23:37;15.40;99.90
22779;DHT22;11556;51.194;3.800;2023-07-30T01:26:08;15.50;99.90
22779;DHT22;11556;51.194;3.800;2023-07-30T01:28:49;15.50;99.90
22779;DHT22;11556;51.194;3.800;2023-07-30T01:31:17;15.40;99.90
22779;DHT22;11556;51.194;3.800;2023-07-30T01:33:46;15.40;99.90
22779;DHT22;11556;51.194;3.800;2023-07-30T01:36:15;15.40;99.90
22779;DHT22;11556;51.194;3.800;2023-07-30T01:38:40;15.40;99.90
22779;DHT22;11556;51.194;3.800;2023-07-30T01:41:07;15.40;99.90
22779;DHT22;11556;51.194;3.800;2023-07-30T01:43:33;15.50;99.90
22779;DHT22;11556;51.194;3.800;2023-07-30T01:45:59;15.50;99.90
22779;DHT22;11556;51.194;3.800;2023-07-30T01:48:24;15.40;99.90
22779;DHT22;11556;51.194;3.800;2023-07-30T01:50:50;15.40;99.90
22779;DHT22;11556;51.194;3.800;2023-07-30T01:53:15;15.30;99.90
22779;DHT22;11556;51.194;3.800;2023-07-30T01:55:41;15.30;99.90
22779;DHT22;11556;51.194;3.800;2023-07-30T01:58:12;15.20;99.90
22779;DHT22;11556;51.194;3.800;2023-07-30T02:00:38;15.10;99.90
22779;DHT22;11556;51.194;3.800;2023-07-30T02:03:04;15.20;99.90
22779;DHT22;11556;51.194;3.800;2023-07-30T02:05:30;15.20;99.90
22779;DHT22;11556;51.194;3.800;2023-07-30T02:07:55;15.10;99.90
22779;DHT22;11556;51.194;3.800;2023-07-30T02:10:21;15.20;99.90
22779;DHT22;11556;51.194;3.800;2023-07-30T02:12:46;15.20;99.90
22779;DHT22;11556;51.194;3.800;2023-07-30T02:15:12;15.20;99.90
22779;DHT22;11556;51.194;3.800;2023-07-30T02:17:37;15.20;99.90
22779;DHT22;11556;51.194;3.800;2023-07-30T02:20:03;15.30;99.90
22779;DHT22;11556;51.194;3.800;2023-07-30T02:22:29;15.20;99.90
22779;DHT22;11556;51.194;3.800;2023-07-30T02:24:55;15.20;99.90
22779;DHT22;11556;51.194;3.800;2023-07-30T02:27:22;15.10;99.90
22779;DHT22;11556;51.194;3.800;2023-07-30T02:29:48;15.20;99.90
22779;DHT22;11556;51.194;3.800;2023-07-30T02:32:13;15.10;99.90
22779;DHT22;11556;51.194;3.800;2023-07-30T02:34:39;15.10;99.90
22779;DHT22;11556;51.194;3.800;2023-07-30T02:37:05;15.00;99.90
22779;DHT22;11556;51.194;3.800;2023-07-30T02:39:30;15.00;99.90
22779;DHT22;11556;51.194;3.800;2023-07-30T02:41:56;15.00;99.90
22779;DHT22;11556;51.194;3.800;2023-07-30T02:44:21;15.10;99.90
22779;DHT22;11556;51.194;3.800;2023-07-30T02:46:47;15.00;99.90
22779;DHT22;11556;51.194;3.800;2023-07-30T02:49:13;15.00;99.90
22779;DHT22;11556;51.194;3.800;2023-07-30T02:51:38;14.90;99.90
22779;DHT22;11556;51.194;3.800;2023-07-30T02:54:05;14.90;99.90
22779;DHT22;11556;51.194;3.800;2023-07-30T02:56:31;14.90;99.90
22779;DHT22;11556;51.194;3.800;2023-07-30T02:58:58;14.90;99.90
22779;DHT22;11556;51.194;3.800;2023-07-30T03:01:23;14.90;99.90
22779;DHT22;11556;51.194;3.800;2023-07-30T03:03:49;14.90;99.90
22779;DHT22;11556;51.194;3.800;2023-07-30T03:06:15;14.90;99.90
22779;DHT22;11556;51.194;3.800;2023-07-30T03:08:42;14.80;99.90
22779;DHT22;11556;51.194;3.800;2023-07-30T03:11:08;14.90;99.90
22779;DHT22;11556;51.194;3.800;2023-07-30T03:13:33;14.90;99.90
22779;DHT22;11556;51.194;3.800;2023-07-30T03:15:59;14.90;99.90
22779;DHT22;11556;51.194;3.800;2023-07-30T03:18:25;15.00;99.90
22779;DHT22;11556;51.194;3.800;2023-07-30T03:20:50;14.90;99.90
22779;DHT22;11556;51.194;3.800;2023-07-30T03:23:16;14.80;99.90
22779;DHT22;11556;51.194;3.800;2023-07-30T03:25:41;14.90;99.90
22779;DHT22;11556;51.194;3.800;2023-07-30T03:28:07;14.90;99.90
22779;DHT22;11556;51.194;3.800;2023-07-30T03:30:33;14.90;99.90
22779;DHT22;11556;51.194;3.800;2023-07-30T03:32:58;14.90;99.90
22779;DHT22;11556;51.194;3.800;2023-07-30T03:35:24;15.00;99.90
22779;DHT22;11556;51.194;3.800;2023-07-30T03:37:51;15.00;99.90
22779;DHT22;11556;51.194;3.800;2023-07-30T03:40:16;15.00;99.90
22779;DHT22;11556;51.194;3.800;2023-07-30T03:42:42;15.10;99.90
22779;DHT22;11556;51.194;3.800;2023-07-30T03:45:08;15.10;99.90
22779;DHT22;11556;51.194;3.800;2023-07-30T03:47:33;15.20;99.90
22779;DHT22;11556;51.194;3.800;2023-07-30T03:49:59;15.20;99.90
22779;DHT22;11556;51.194;3.800;2023-07-30T03:52:24;15.30;99.90
22779;DHT22;11556;51.194;3.800;2023-07-30T03:54:50;15.30;99.90
22779;DHT22;11556;51.194;3.800;2023-07-30T03:57:16;15.30;99.90
22779;DHT22;11556;51.194;3.800;2023-07-30T03:59:41;15.20;99.90
22779;DHT22;11556;51.194;3.800;2023-07-30T04:02:07;15.30;99.90
22779;DHT22;11556;51.194;3.800;2023-07-30T04:04:33;15.30;99.90
22779;DHT22;11556;51.194;3.800;2023-07-30T04:06:58;15.30;99.90
22779;DHT22;11556;51.194;3.800;2023-07-30T04:09:24;15.30;99.90
22779;DHT22;11556;51.194;3.800;2023-07-30T04:11:49;15.30;99.90
22779;DHT22;11556;51.194;3.800;2023-07-30T04:14:15;15.40;99.90
22779;DHT22;11556;51.194;3.800;2023-07-30T04:16:40;15.30;99.90
22779;DHT22;11556;51.194;3.800;2023-07-30T04:19:08;15.20;99.90
22779;DHT22;11556;51.194;3.800;2023-07-30T04:21:33;15.30;99.90
22779;DHT22;11556;51.194;3.800;2023-07-30T04:23:59;15.30;99.90
22779;DHT22;11556;51.194;3.800;2023-07-30T04:26:25;15.30;99.90
22779;DHT22;11556;51.194;3.800;2023-07-30T04:28:50;15.30;99.90
22779;DHT22;11556;51.194;3.800;2023-07-30T04:31:16;15.30;99.90
22779;DHT22;11556;51.194;3.800;2023-07-30T04:33:41;15.30;99.90
22779;DHT22;11556;51.194;3.800;2023-07-30T04:36:07;15.30;99.90
22779;DHT22;11556;51.194;3.800;2023-07-30T04:38:33;15.30;99.90
22779;DHT22;11556;51.194;3.800;2023-07-30T04:40:58;15.40;99.90
22779;DHT22;11556;51.194;3.800;2023-07-30T04:43:24;15.40;99.90
22779;DHT22;11556;51.194;3.800;2023-07-30T04:45:50;15.40;99.90
22779;DHT22;11556;51.194;3.800;2023-07-30T04:48:15;15.50;99.90
22779;DHT22;11556;51.194;3.800;2023-07-30T04:50:41;15.50;99.90
22779;DHT22;11556;51.194;3.800;2023-07-30T04:53:08;15.50;99.90
22779;DHT22;11556;51.194;3.800;2023-07-30T04:55:34;15.60;99.90
22779;DHT22;11556;51.194;3.800;2023-07-30T04:57:59;15.70;99.90
22779;DHT22;11556;51.194;3.800;2023-07-30T05:00:25;15.70;99.90
22779;DHT22;11556;51.194;3.800;2023-07-30T05:02:51;15.70;99.90
22779;DHT22;11556;51.194;3.800;2023-07-30T05:05:16;15.70;99.90
22779;DHT22;11556;51.194;3.800;2023-07-30T05:07:42;15.80;99.90
22779;DHT22;11556;51.194;3.800;2023-07-30T05:10:08;15.90;99.90
22779;DHT22;11556;51.194;3.800;2023-07-30T05:12:36;16.00;99.90
22779;DHT22;11556;51.194;3.800;2023-07-30T05:15:02;16.00;99.90
22779;DHT22;11556;51.194;3.800;2023-07-30T05:17:28;16.00;99.90
22779;DHT22;11556;51.194;3.800;2023-07-30T05:19:54;16.10;99.90
22779;DHT22;11556;51.194;3.800;2023-07-30T05:22:20;16.20;99.90
22779;DHT22;11556;51.194;3.800;2023-07-30T05:24:45;16.30;99.90
22779;DHT22;11556;51.194;3.800;2023-07-30T05:27:11;16.20;99.90
22779;DHT22;11556;51.194;3.800;2023-07-30T05:29:36;16.20;99.90
22779;DHT22;11556;51.194;3.800;2023-07-30T05:32:02;16.40;99.90
22779;DHT22;11556;51.194;3.800;2023-07-30T05:34:28;16.40;99.90
22779;DHT22;11556;51.194;3.800;2023-07-30T05:36:53;16.30;99.90
22779;DHT22;11556;51.194;3.800;2023-07-30T05:39:19;16.30;99.90
22779;DHT22;11556;51.194;3.800;2023-07-30T05:41:44;16.30;99.90
22779;DHT22;11556;51.194;3.800;2023-07-30T05:44:10;16.40;99.90
22779;DHT22;11556;51.194;3.800;2023-07-30T05:46:36;16.40;99.90
22779;DHT22;11556;51.194;3.800;2023-07-30T05:49:01;16.30;99.90
22779;DHT22;11556;51.194;3.800;2023-07-30T05:51:27;16.40;99.90
22779;DHT22;11556;51.194;3.800;2023-07-30T05:53:53;16.50;99.90
22779;DHT22;11556;51.194;3.800;2023-07-30T05:56:18;16.60;99.90
22779;DHT22;11556;51.194;3.800;2023-07-30T05:58:45;16.80;99.90
22779;DHT22;11556;51.194;3.800;2023-07-30T06:01:11;16.80;99.90
22779;DHT22;11556;51.194;3.800;2023-07-30T06:03:39;17.00;99.90
22779;DHT22;11556;51.194;3.800;2023-07-30T06:06:05;17.00;99.90
22779;DHT22;11556;51.194;3.800;2023-07-30T06:08:30;16.90;99.90
22779;DHT22;11556;51.194;3.800;2023-07-30T06:11:01;17.10;99.90
22779;DHT22;11556;51.194;3.800;2023-07-30T06:13:28;17.70;99.90
22779;DHT22;11556;51.194;3.800;2023-07-30T06:15:54;18.20;99.90
22779;DHT22;11556;51.194;3.800;2023-07-30T06:18:20;18.30;99.90
22779;DHT22;11556;51.194;3.800;2023-07-30T06:20:46;18.40;99.90
22779;DHT22;11556;51.194;3.800;2023-07-30T06:23:11;19.10;99.90
22779;DHT22;11556;51.194;3.800;2023-07-30T06:25:37;20.30;99.90
22779;DHT22;11556;51.194;3.800;2023-07-30T06:28:04;21.30;99.90
22779;DHT22;11556;51.194;3.800;2023-07-30T06:30:31;21.10;99.90
22779;DHT22;11556;51.194;3.800;2023-07-30T06:32:57;20.70;99.90
22779;DHT22;11556;51.194;3.800;2023-07-30T06:35:23;20.40;99.90
22779;DHT22;11556;51.194;3.800;2023-07-30T06:37:49;20.00;99.90
22779;DHT22;11556;51.194;3.800;2023-07-30T06:40:14;20.00;99.90
22779;DHT22;11556;51.194;3.800;2023-07-30T06:42:40;19.80;99.90
22779;DHT22;11556;51.194;3.800;2023-07-30T06:45:06;19.70;99.90
22779;DHT22;11556;51.194;3.800;2023-07-30T06:47:32;19.80;99.90
22779;DHT22;11556;51.194;3.800;2023-07-30T06:49:57;19.80;99.90
22779;DHT22;11556;51.194;3.800;2023-07-30T06:52:23;19.90;99.90
22779;DHT22;11556;51.194;3.800;2023-07-30T06:54:48;19.80;99.90
22779;DHT22;11556;51.194;3.800;2023-07-30T06:57:14;20.20;99.90
22779;DHT22;11556;51.194;3.800;2023-07-30T06:59:40;20.70;99.90
22779;DHT22;11556;51.194;3.800;2023-07-30T07:02:06;20.90;99.90
22779;DHT22;11556;51.194;3.800;2023-07-30T07:04:31;21.50;99.90
22779;DHT22;11556;51.194;3.800;2023-07-30T07:06:57;21.50;99.90
22779;DHT22;11556;51.194;3.800;2023-07-30T07:09:22;21.40;99.90
22779;DHT22;11556;51.194;3.800;2023-07-30T07:11:48;21.30;99.90
22779;DHT22;11556;51.194;3.800;2023-07-30T07:14:14;21.00;99.90
22779;DHT22;11556;51.194;3.800;2023-07-30T07:16:39;20.80;99.90
22779;DHT22;11556;51.194;3.800;2023-07-30T07:19:05;20.70;99.90
22779;DHT22;11556;51.194;3.800;2023-07-30T07:21:31;20.70;99.90
22779;DHT22;11556;51.194;3.800;2023-07-30T07:23:56;20.60;99.90
22779;DHT22;11556;51.194;3.800;2023-07-30T07:26:22;20.50;99.90
22779;DHT22;11556;51.194;3.800;2023-07-30T07:28:47;20.50;99.90
22779;DHT22;11556;51.194;3.800;2023-07-30T07:31:13;20.80;99.90
22779;DHT22;11556;51.194;3.800;2023-07-30T07:33:39;20.80;99.90
22779;DHT22;11556;51.194;3.800;2023-07-30T07:36:06;20.90;99.90
22779;DHT22;11556;51.194;3.800;2023-07-30T07:38:33;20.60;99.90
22779;DHT22;11556;51.194;3.800;2023-07-30T07:41:00;20.60;99.90
22779;DHT22;11556;51.194;3.800;2023-07-30T07:43:26;20.50;99.90
22779;DHT22;11556;51.194;3.800;2023-07-30T07:45:52;20.60;99.90
22779;DHT22;11556;51.194;3.800;2023-07-30T07:48:18;20.70;99.90
22779;DHT22;11556;51.194;3.800;2023-07-30T07:50:44;21.00;99.90
22779;DHT22;11556;51.194;3.800;2023-07-30T07:53:10;21.20;99.90
22779;DHT22;11556;51.194;3.800;2023-07-30T07:55:35;21.40;99.90
22779;DHT22;11556;51.194;3.800;2023-07-30T07:58:01;21.90;99.90
22779;DHT22;11556;51.194;3.800;2023-07-30T08:00:26;22.10;99.90
22779;DHT22;11556;51.194;3.800;2023-07-30T08:02:52;22.10;99.90
22779;DHT22;11556;51.194;3.800;2023-07-30T08:05:18;21.90;99.90
22779;DHT22;11556;51.194;3.800;2023-07-30T08:07:46;21.90;99.90
22779;DHT22;11556;51.194;3.800;2023-07-30T08:10:11;21.80;99.90
22779;DHT22;11556;51.194;3.800;2023-07-30T08:12:37;21.90;99.90
22779;DHT22;11556;51.194;3.800;2023-07-30T08:15:03;22.20;99.90
22779;DHT22;11556;51.194;3.800;2023-07-30T08:17:29;22.60;99.90
22779;DHT22;11556;51.194;3.800;2023-07-30T08:19:54;23.10;99.90
22779;DHT22;11556;51.194;3.800;2023-07-30T08:22:20;23.80;99.90
22779;DHT22;11556;51.194;3.800;2023-07-30T08:24:46;24.60;99.90
22779;DHT22;11556;51.194;3.800;2023-07-30T08:27:11;24.80;99.90
22779;DHT22;11556;51.194;3.800;2023-07-30T08:29:37;25.30;99.90
22779;DHT22;11556;51.194;3.800;2023-07-30T08:32:03;25.80;99.90
22779;DHT22;11556;51.194;3.800;2023-07-30T08:34:28;25.30;99.90
22779;DHT22;11556;51.194;3.800;2023-07-30T08:36:54;25.30;99.90
22779;DHT22;11556;51.194;3.800;2023-07-30T08:39:20;25.50;99.90
22779;DHT22;11556;51.194;3.800;2023-07-30T08:41:46;25.30;99.90
22779;DHT22;11556;51.194;3.800;2023-07-30T08:44:12;24.90;99.90
22779;DHT22;11556;51.194;3.800;2023-07-30T08:46:38;25.00;99.90
22779;DHT22;11556;51.194;3.800;2023-07-30T08:49:04;25.10;99.90
22779;DHT22;11556;51.194;3.800;2023-07-30T08:51:31;25.40;99.90
22779;DHT22;11556;51.194;3.800;2023-07-30T08:54:00;25.80;99.90
22779;DHT22;11556;51.194;3.800;2023-07-30T08:56:26;26.80;99.90
22779;DHT22;11556;51.194;3.800;2023-07-30T08:58:53;27.10;98.10
22779;DHT22;11556;51.194;3.800;2023-07-30T09:01:23;27.30;97.60
22779;DHT22;11556;51.194;3.800;2023-07-30T09:03:52;27.80;95.90
22779;DHT22;11556;51.194;3.800;2023-07-30T09:06:18;27.60;95.00
22779;DHT22;11556;51.194;3.800;2023-07-30T09:08:44;27.00;94.90
22779;DHT22;11556;51.194;3.800;2023-07-30T09:11:10;26.40;95.80
22779;DHT22;11556;51.194;3.800;2023-07-30T09:13:40;26.40;96.60
22779;DHT22;11556;51.194;3.800;2023-07-30T09:16:10;26.50;96.80
22779;DHT22;11556;51.194;3.800;2023-07-30T09:18:41;27.00;96.40
22779;DHT22;11556;51.194;3.800;2023-07-30T09:21:07;27.20;94.80
22779;DHT22;11556;51.194;3.800;2023-07-30T09:23:39;28.20;94.70
22779;DHT22;11556;51.194;3.800;2023-07-30T09:26:05;28.80;92.30
22779;DHT22;11556;51.194;3.800;2023-07-30T09:28:31;28.60;91.30
22779;DHT22;11556;51.194;3.800;2023-07-30T09:31:04;28.60;92.20
22779;DHT22;11556;51.194;3.800;2023-07-30T09:33:41;29.30;88.80
22779;DHT22;11556;51.194;3.800;2023-07-30T09:36:08;29.20;86.50
22779;DHT22;11556;51.194;3.800;2023-07-30T09:38:41;29.10;84.30
22779;DHT22;11556;51.194;3.800;2023-07-30T09:41:08;29.60;85.30
22779;DHT22;11556;51.194;3.800;2023-07-30T09:43:35;30.50;82.70
22779;DHT22;11556;51.194;3.800;2023-07-30T09:46:03;31.70;76.20
22779;DHT22;11556;51.194;3.800;2023-07-30T09:48:30;31.60;72.70
22779;DHT22;11556;51.194;3.800;2023-07-30T09:50:59;31.00;72.90
22779;DHT22;11556;51.194;3.800;2023-07-30T09:53:26;30.00;73.20
22779;DHT22;11556;51.194;3.800;2023-07-30T09:55:53;28.60;76.60
22779;DHT22;11556;51.194;3.800;2023-07-30T09:58:19;27.60;79.70
22779;DHT22;11556;51.194;3.800;2023-07-30T10:00:45;27.60;83.20
22779;DHT22;11556;51.194;3.800;2023-07-30T10:03:15;28.40;81.20
22779;DHT22;11556;51.194;3.800;2023-07-30T10:05:44;29.70;79.00
22779;DHT22;11556;51.194;3.800;2023-07-30T10:08:17;29.40;76.10
22779;DHT22;11556;51.194;3.800;2023-07-30T10:10:45;28.70;74.60
22779;DHT22;11556;51.194;3.800;2023-07-30T10:13:12;27.90;77.40
22779;DHT22;11556;51.194;3.800;2023-07-30T10:15:38;27.10;79.50
22779;DHT22;11556;51.194;3.800;2023-07-30T10:18:04;26.20;84.10
22779;DHT22;11556;51.194;3.800;2023-07-30T10:20:31;25.40;87.40
22779;DHT22;11556;51.194;3.800;2023-07-30T10:22:59;25.10;89.10
22779;DHT22;11556;51.194;3.800;2023-07-30T10:27:54;26.70;87.50
22779;DHT22;11556;51.194;3.800;2023-07-30T10:30:20;28.10;84.30
22779;DHT22;11556;51.194;3.800;2023-07-30T10:35:44;30.60;75.40
22779;DHT22;11556;51.194;3.800;2023-07-30T10:38:40;30.90;71.60
22779;DHT22;11556;51.194;3.800;2023-07-30T10:41:14;31.80;68.00
22779;DHT22;11556;51.194;3.800;2023-07-30T10:43:47;31.80;63.90
22779;DHT22;11556;51.194;3.800;2023-07-30T10:46:16;31.20;65.40
22779;DHT22;11556;51.194;3.800;2023-07-30T10:48:44;30.90;63.10
22779;DHT22;11556;51.194;3.800;2023-07-30T10:51:15;30.60;63.60
22779;DHT22;11556;51.194;3.800;2023-07-30T10:53:42;30.30;65.50
22779;DHT22;11556;51.194;3.800;2023-07-30T10:56:09;29.80;65.20
22779;DHT22;11556;51.194;3.800;2023-07-30T10:58:35;29.40;68.10
22779;DHT22;11556;51.194;3.800;2023-07-30T11:01:06;29.30;68.30
22779;DHT22;11556;51.194;3.800;2023-07-30T11:03:32;29.30;66.90
22779;DHT22;11556;51.194;3.800;2023-07-30T11:05:59;29.60;65.60
22779;DHT22;11556;51.194;3.800;2023-07-30T11:08:40;29.80;63.80
22779;DHT22;11556;51.194;3.800;2023-07-30T11:11:08;30.80;63.90
22779;DHT22;11556;51.194;3.800;2023-07-30T11:13:42;31.20;60.40
22779;DHT22;11556;51.194;3.800;2023-07-30T11:16:09;30.30;60.10
22779;DHT22;11556;51.194;3.800;2023-07-30T11:18:35;29.30;62.00
22779;DHT22;11556;51.194;3.800;2023-07-30T11:21:08;28.40;65.40
22779;DHT22;11556;51.194;3.800;2023-07-30T11:23:35;27.50;69.20
22779;DHT22;11556;51.194;3.800;2023-07-30T11:26:02;26.90;71.80
22779;DHT22;11556;51.194;3.800;2023-07-30T11:28:29;26.20;74.90
22779;DHT22;11556;51.194;3.800;2023-07-30T11:30:59;25.60;78.20
22779;DHT22;11556;51.194;3.800;2023-07-30T11:33:26;25.70;80.10
22779;DHT22;11556;51.194;3.800;2023-07-30T11:35:53;26.00;77.20
22779;DHT22;11556;51.194;3.800;2023-07-30T11:38:19;26.90;75.10
22779;DHT22;11556;51.194;3.800;2023-07-30T11:40:46;26.80;70.50
22779;DHT22;11556;51.194;3.800;2023-07-30T11:43:12;26.60;73.00
22779;DHT22;11556;51.194;3.800;2023-07-30T11:45:38;26.40;72.40
22779;DHT22;11556;51.194;3.800;2023-07-30T11:48:09;26.40;73.20
22779;DHT22;11556;51.194;3.800;2023-07-30T11:50:48;27.00;71.70
22779;DHT22;11556;51.194;3.800;2023-07-30T11:53:15;27.10;71.50
22779;DHT22;11556;51.194;3.800;2023-07-30T11:55:42;26.90;70.70
22779;DHT22;11556;51.194;3.800;2023-07-30T11:58:09;27.00;69.30
22779;DHT22;11556;51.194;3.800;2023-07-30T12:00:40;27.30;67.00
22779;DHT22;11556;51.194;3.800;2023-07-30T12:03:09;27.70;65.10
22779;DHT22;11556;51.194;3.800;2023-07-30T12:05:36;27.40;66.70
22779;DHT22;11556;51.194;3.800;2023-07-30T12:08:03;26.70;66.50
22779;DHT22;11556;51.194;3.800;2023-07-30T12:10:49;26.50;67.30
22779;DHT22;11556;51.194;3.800;2023-07-30T12:13:18;26.60;68.60
22779;DHT22;11556;51.194;3.800;2023-07-30T12:15:53;27.60;68.60
22779;DHT22;11556;51.194;3.800;2023-07-30T12:18:20;27.80;67.40
22779;DHT22;11556;51.194;3.800;2023-07-30T12:20:46;27.00;68.00
22779;DHT22;11556;51.194;3.800;2023-07-30T12:23:13;26.90;69.40
22779;DHT22;11556;51.194;3.800;2023-07-30T12:25:38;27.10;67.10
22779;DHT22;11556;51.194;3.800;2023-07-30T12:28:04;27.30;67.10
22779;DHT22;11556;51.194;3.800;2023-07-30T12:30:45;27.60;64.80
22779;DHT22;11556;51.194;3.800;2023-07-30T12:33:13;27.40;66.70
22779;DHT22;11556;51.194;3.800;2023-07-30T12:35:39;26.70;68.90
22779;DHT22;11556;51.194;3.800;2023-07-30T12:38:04;26.30;70.60
22779;DHT22;11556;51.194;3.800;2023-07-30T12:40:30;27.00;71.90
22779;DHT22;11556;51.194;3.800;2023-07-30T12:43:00;27.60;68.70
22779;DHT22;11556;51.194;3.800;2023-07-30T12:45:26;27.40;68.70
22779;DHT22;11556;51.194;3.800;2023-07-30T12:47:52;27.10;68.30
22779;DHT22;11556;51.194;3.800;2023-07-30T12:50:17;26.40;70.30
22779;DHT22;11556;51.194;3.800;2023-07-30T12:52:43;26.70;70.90
22779;DHT22;11556;51.194;3.800;2023-07-30T12:55:09;27.40;67.50
22779;DHT22;11556;51.194;3.800;2023-07-30T12:57:35;27.80;66.20
22779;DHT22;11556;51.194;3.800;2023-07-30T13:00:01;27.80;65.40
22779;DHT22;11556;51.194;3.800;2023-07-30T13:02:30;27.40;65.10
22779;DHT22;11556;51.194;3.800;2023-07-30T13:04:59;27.00;68.00
22779;DHT22;11556;51.194;3.800;2023-07-30T13:07:24;27.00;67.70
22779;DHT22;11556;51.194;3.800;2023-07-30T13:10:08;27.60;68.20
22779;DHT22;11556;51.194;3.800;2023-07-30T13:12:34;28.10;65.60
22779;DHT22;11556;51.194;3.800;2023-07-30T13:15:00;28.00;65.30
22779;DHT22;11556;51.194;3.800;2023-07-30T13:17:25;27.50;67.30
22779;DHT22;11556;51.194;3.800;2023-07-30T13:19:51;27.30;67.40
22779;DHT22;11556;51.194;3.800;2023-07-30T13:22:17;27.60;67.60
22779;DHT22;11556;51.194;3.800;2023-07-30T13:24:42;27.90;65.20
22779;DHT22;11556;51.194;3.800;2023-07-30T13:27:08;28.20;65.70
22779;DHT22;11556;51.194;3.800;2023-07-30T13:29:34;28.10;65.20
22779;DHT22;11556;51.194;3.800;2023-07-30T13:31:59;28.50;64.20
22779;DHT22;11556;51.194;3.800;2023-07-30T13:34:25;29.00;62.40
22779;DHT22;11556;51.194;3.800;2023-07-30T13:36:50;29.10;60.50
22779;DHT22;11556;51.194;3.800;2023-07-30T13:39:16;29.20;62.80
22779;DHT22;11556;51.194;3.800;2023-07-30T13:41:42;29.30;61.60
22779;DHT22;11556;51.194;3.800;2023-07-30T13:44:08;28.80;64.30
22779;DHT22;11556;51.194;3.800;2023-07-30T13:46:34;28.40;67.50
22779;DHT22;11556;51.194;3.800;2023-07-30T13:48:59;28.60;67.50
22779;DHT22;11556;51.194;3.800;2023-07-30T13:51:25;28.80;66.70
22779;DHT22;11556;51.194;3.800;2023-07-30T13:53:52;27.80;68.70
22779;DHT22;11556;51.194;3.800;2023-07-30T13:56:17;27.20;71.10
22779;DHT22;11556;51.194;3.800;2023-07-30T13:58:43;26.90;72.80
22779;DHT22;11556;51.194;3.800;2023-07-30T14:01:09;26.90;73.60
22779;DHT22;11556;51.194;3.800;2023-07-30T14:03:35;26.50;74.70
22779;DHT22;11556;51.194;3.800;2023-07-30T14:06:00;26.00;78.70
22779;DHT22;11556;51.194;3.800;2023-07-30T14:08:26;25.30;79.20
22779;DHT22;11556;51.194;3.800;2023-07-30T14:10:52;25.00;83.00
22779;DHT22;11556;51.194;3.800;2023-07-30T14:13:17;24.70;83.50
22779;DHT22;11556;51.194;3.800;2023-07-30T14:15:43;24.70;83.20
22779;DHT22;11556;51.194;3.800;2023-07-30T14:18:10;24.60;83.60
22779;DHT22;11556;51.194;3.800;2023-07-30T14:20:36;24.60;84.40
22779;DHT22;11556;51.194;3.800;2023-07-30T14:23:03;24.80;84.90
22779;DHT22;11556;51.194;3.800;2023-07-30T14:25:29;25.40;84.40
22779;DHT22;11556;51.194;3.800;2023-07-30T14:27:55;26.00;80.40
22779;DHT22;11556;51.194;3.800;2023-07-30T14:30:21;26.10;80.30
22779;DHT22;11556;51.194;3.800;2023-07-30T14:32:48;25.80;80.70
22779;DHT22;11556;51.194;3.800;2023-07-30T14:35:13;25.30;82.40
22779;DHT22;11556;51.194;3.800;2023-07-30T14:37:39;24.80;84.30
22779;DHT22;11556;51.194;3.800;2023-07-30T14:40:05;24.40;86.40
22779;DHT22;11556;51.194;3.800;2023-07-30T14:42:31;24.00;90.10
22779;DHT22;11556;51.194;3.800;2023-07-30T14:44:57;23.70;92.10
22779;DHT22;11556;51.194;3.800;2023-07-30T14:47:22;23.60;92.80
22779;DHT22;11556;51.194;3.800;2023-07-30T14:49:48;23.30;95.00
22779;DHT22;11556;51.194;3.800;2023-07-30T14:52:17;23.10;97.10
22779;DHT22;11556;51.194;3.800;2023-07-30T14:54:43;23.10;98.60
22779;DHT22;11556;51.194;3.800;2023-07-30T14:57:09;23.00;99.90
22779;DHT22;11556;51.194;3.800;2023-07-30T14:59:34;22.70;99.90
22779;DHT22;11556;51.194;3.800;2023-07-30T15:02:00;22.10;99.90
22779;DHT22;11556;51.194;3.800;2023-07-30T15:04:26;21.50;99.90
22779;DHT22;11556;51.194;3.800;2023-07-30T15:06:52;21.20;99.90
22779;DHT22;11556;51.194;3.800;2023-07-30T15:09:17;21.00;99.90
22779;DHT22;11556;51.194;3.800;2023-07-30T15:11:43;20.80;99.90
22779;DHT22;11556;51.194;3.800;2023-07-30T15:14:09;20.60;99.90
22779;DHT22;11556;51.194;3.800;2023-07-30T15:16:34;20.60;99.90
22779;DHT22;11556;51.194;3.800;2023-07-30T15:19:00;20.60;99.90
22779;DHT22;11556;51.194;3.800;2023-07-30T15:21:25;20.50;99.90
22779;DHT22;11556;51.194;3.800;2023-07-30T15:23:51;20.50;99.90
22779;DHT22;11556;51.194;3.800;2023-07-30T15:26:17;20.50;99.90
22779;DHT22;11556;51.194;3.800;2023-07-30T15:28:42;20.60;99.90
22779;DHT22;11556;51.194;3.800;2023-07-30T15:31:08;20.70;99.90